Tramway, North Carolina
Current Conditions -  °F | °C
As of 4:35 AM on Sunday 26 Oct 2014 (Local Time) from KTTA Reporting Station
Clear Clear  
Wind Chill: 48°   Ceiling: Unl
Heat Index: 48°   Visibility: 10mi
Dew Point: 46°   Wind: 3mph
Humidity: 92%   Direction: 230°SW
Pressure: 29.83"   Gusts: NA
Location:  35.493°N, 79.1765°W
Report Text: KTTA 260835Z AUTO 23003KT 10SM CLR 09/08 A2983 RMK AO2 T00870075
Loading
Personal Weather Stations






























Interactive Weather Map
Tropical Storm Tracking
New forecast layout! Learn more

10-Day Weather Forecast

Advertisements
Track Severe Weather on mobile